Date,TemperatureHighF,TemperatureAvgF,TemperatureLowF,DewpointHighF,DewpointAvgF,DewpointLowF,HumidityHigh,HumidityAvg,HumidityLow,PressureMaxIn,PressureMinIn,WindSpeedMaxMPH,WindSpeedAvgMPH,GustSpeedMaxMPH,PrecipitationSumIn
2013-3-1,46.0,38.7,35.0,38.0,33.2,26.0,100,83,50,29.82,29.64,19,5,19,0.00
2013-3-2,39.0,34.2,30.0,33.4,27.2,24.9,96,76,59,29.85,29.74,16,6,17,0.00
2013-3-3,35.0,29.3,26.0,27.4,23.3,18.8,91,78,58,29.82,29.72,18,6,22,0.00
2013-3-4,39.0,30.9,26.0,24.0,22.1,20.1,84,70,52,29.94,29.77,30,8,30,0.00
2013-3-5,47.0,37.3,29.0,35.6,25.7,21.4,80,64,46,30.11,29.94,17,6,22,0.00
2013-3-6,41.0,37.3,34.0,39.0,33.0,28.4,100,85,65,30.11,30.01,28,8,34,0.01
2013-3-7,36.0,33.0,31.0,35.0,32.1,29.6,100,97,80,30.15,30.06,30,9,30,0.06
2013-3-8,41.0,34.5,31.0,33.0,29.9,25.3,100,85,56,30.25,30.05,22,6,22,0.50
2013-3-9,56.0,41.2,30.0,34.0,22.4,11.4,100,52,19,30.44,30.19,16,4,16,0.09
2013-3-10,53.0,35.0,23.0,38.0,30.4,23.0,100,86,43,30.53,30.31,9,2,9,0.18
2013-3-11,54.0,45.6,36.0,48.0,42.7,36.0,100,90,64,30.36,30.18,10,4,11,0.00
2013-3-12,53.0,49.8,40.0,53.0,49.8,40.0,100,100,100,30.05,29.71,20,4,20,0.98
2013-3-13,50.0,40.4,30.0,40.0,29.1,22.0,100,68,37,29.96,29.79,20,4,20,0.96
2013-3-14,36.0,30.0,27.0,31.6,17.3,9.3,93,60,42,30.00,29.91,31,8,32,0.02
2013-3-15,44.0,32.4,23.0,32.5,19.2,10.7,90,60,31,30.06,29.77,20,5,23,0.00
2013-3-16,41.0,33.8,28.0,32.4,20.6,11.3,91,60,35,29.99,29.81,17,4,17,0.00
2013-3-17,36.0,30.1,23.0,19.8,10.2,1.8,68,45,24,30.43,29.99,25,6,29,0.00
2013-3-18,38.0,27.6,19.0,28.0,10.0,-0.9,100,52,22,30.59,30.25,14,4,14,0.00
2013-3-19,36.0,32.2,28.0,36.0,32.2,28.0,100,100,100,30.25,29.74,17,5,20,0.33
2013-3-20,42.0,31.9,26.0,33.0,21.9,15.2,100,69,36,29.95,29.83,21,3,21,0.16
2013-3-21,37.0,30.8,26.0,33.0,20.2,9.7,100,67,42,29.96,29.71,16,3,17,0.06
2013-3-22,41.0,31.7,23.0,25.9,18.0,10.8,75,57,41,29.92,29.77,23,6,23,0.06
2013-3-23,44.0,36.2,30.0,26.6,20.6,14.2,80,55,32,29.96,29.79,29,6,31,0.02
2013-3-24,46.0,37.5,27.0,32.7,22.6,19.1,87,56,39,30.01,29.77,17,5,19,0.00
2013-3-25,45.0,38.2,31.0,32.2,26.6,24.5,86,64,47,29.84,29.51,23,6,23,0.00
2013-3-26,49.0,40.3,33.0,31.7,25.2,17.6,81,57,31,29.93,29.63,20,4,23,0.00
2013-3-27,53.0,42.4,31.0,29.4,23.6,16.4,72,49,25,29.98,29.81,22,6,25,0.00
2013-3-28,51.0,43.1,38.0,37.7,31.7,28.2,88,65,44,30.12,29.98,16,5,16,0.00
2013-3-29,54.0,44.3,36.0,34.5,30.2,26.5,87,59,36,30.18,30.02,19,5,20,0.00
2013-3-30,56.0,45.6,36.0,32.3,25.0,16.8,83,49,23,30.21,30.04,20,4,22,0.00
2013-3-31,57.0,43.4,27.0,44.5,30.3,20.5,100,64,29,30.25,29.71,13,3,13,0.21